sensor_id;sensor_type;location;lat;lon;timestamp;P1;durP1;ratioP1;P2;durP2;ratioP2
70444;SDS011;57902;49.638;11.070;2023-06-22T00:02:02;11.05;;;4.57;;
70444;SDS011;57902;49.638;11.070;2023-06-22T00:04:47;8.98;;;4.72;;
70444;SDS011;57902;49.638;11.070;2023-06-22T00:07:16;9.77;;;5.00;;
70444;SDS011;57902;49.638;11.070;2023-06-22T00:09:55;10.55;;;4.88;;
70444;SDS011;57902;49.638;11.070;2023-06-22T00:12:32;9.63;;;5.55;;
70444;SDS011;57902;49.638;11.070;2023-06-22T00:15:13;8.90;;;4.88;;
70444;SDS011;57902;49.638;11.070;2023-06-22T00:17:42;11.02;;;4.78;;
70444;SDS011;57902;49.638;11.070;2023-06-22T00:20:15;13.02;;;5.35;;
70444;SDS011;57902;49.638;11.070;2023-06-22T00:22:51;9.82;;;4.30;;
70444;SDS011;57902;49.638;11.070;2023-06-22T00:25:27;7.85;;;4.32;;
70444;SDS011;57902;49.638;11.070;2023-06-22T00:27:58;10.85;;;5.07;;
70444;SDS011;57902;49.638;11.070;2023-06-22T00:30:33;9.68;;;4.38;;
70444;SDS011;57902;49.638;11.070;2023-06-22T00:33:03;10.93;;;5.10;;
70444;SDS011;57902;49.638;11.070;2023-06-22T00:35:46;11.93;;;5.07;;
70444;SDS011;57902;49.638;11.070;2023-06-22T00:38:16;10.30;;;4.90;;
70444;SDS011;57902;49.638;11.070;2023-06-22T00:40:51;9.35;;;5.00;;
70444;SDS011;57902;49.638;11.070;2023-06-22T00:43:30;9.55;;;4.90;;
70444;SDS011;57902;49.638;11.070;2023-06-22T00:46:02;8.73;;;4.65;;
70444;SDS011;57902;49.638;11.070;2023-06-22T00:51:02;11.65;;;4.78;;
70444;SDS011;57902;49.638;11.070;2023-06-22T00:53:32;9.95;;;5.30;;
70444;SDS011;57902;49.638;11.070;2023-06-22T00:56:01;9.80;;;4.82;;
70444;SDS011;57902;49.638;11.070;2023-06-22T00:58:36;9.70;;;5.15;;
70444;SDS011;57902;49.638;11.070;2023-06-22T01:03:31;10.13;;;4.88;;
70444;SDS011;57902;49.638;11.070;2023-06-22T01:06:02;8.55;;;5.18;;
70444;SDS011;57902;49.638;11.070;2023-06-22T01:08:44;11.15;;;5.45;;
70444;SDS011;57902;49.638;11.070;2023-06-22T01:11:22;10.75;;;5.28;;
70444;SDS011;57902;49.638;11.070;2023-06-22T01:13:58;10.75;;;5.20;;
70444;SDS011;57902;49.638;11.070;2023-06-22T01:16:30;9.20;;;5.05;;
70444;SDS011;57902;49.638;11.070;2023-06-22T01:19:00;8.80;;;4.68;;
70444;SDS011;57902;49.638;11.070;2023-06-22T01:21:42;9.80;;;4.75;;
70444;SDS011;57902;49.638;11.070;2023-06-22T01:29:52;11.23;;;5.38;;
70444;SDS011;57902;49.638;11.070;2023-06-22T01:32:28;8.48;;;4.82;;
70444;SDS011;57902;49.638;11.070;2023-06-22T01:35:00;8.25;;;4.68;;
70444;SDS011;57902;49.638;11.070;2023-06-22T01:37:29;9.27;;;5.13;;
70444;SDS011;57902;49.638;11.070;2023-06-22T01:39:58;8.43;;;4.95;;
70444;SDS011;57902;49.638;11.070;2023-06-22T01:42:25;8.48;;;4.43;;
70444;SDS011;57902;49.638;11.070;2023-06-22T01:44:55;7.97;;;4.72;;
70444;SDS011;57902;49.638;11.070;2023-06-22T01:47:23;8.55;;;4.40;;
70444;SDS011;57902;49.638;11.070;2023-06-22T01:49:51;10.43;;;4.95;;
70444;SDS011;57902;49.638;11.070;2023-06-22T01:52:18;9.90;;;4.75;;
70444;SDS011;57902;49.638;11.070;2023-06-22T01:54:47;9.93;;;5.00;;
70444;SDS011;57902;49.638;11.070;2023-06-22T01:57:14;9.25;;;5.30;;
70444;SDS011;57902;49.638;11.070;2023-06-22T02:02:23;9.15;;;4.70;;
70444;SDS011;57902;49.638;11.070;2023-06-22T02:04:57;11.73;;;4.50;;
70444;SDS011;57902;49.638;11.070;2023-06-22T02:07:38;10.40;;;5.00;;
70444;SDS011;57902;49.638;11.070;2023-06-22T02:10:10;9.57;;;4.82;;
70444;SDS011;57902;49.638;11.070;2023-06-22T02:12:41;8.88;;;4.93;;
70444;SDS011;57902;49.638;11.070;2023-06-22T02:15:10;9.43;;;4.50;;
70444;SDS011;57902;49.638;11.070;2023-06-22T02:17:38;10.43;;;4.60;;
70444;SDS011;57902;49.638;11.070;2023-06-22T02:20:06;7.32;;;4.28;;
70444;SDS011;57902;49.638;11.070;2023-06-22T02:22:38;9.00;;;4.97;;
70444;SDS011;57902;49.638;11.070;2023-06-22T02:25:04;9.55;;;4.47;;
70444;SDS011;57902;49.638;11.070;2023-06-22T02:27:31;8.68;;;4.65;;
70444;SDS011;57902;49.638;11.070;2023-06-22T02:29:57;7.68;;;4.18;;
70444;SDS011;57902;49.638;11.070;2023-06-22T02:32:24;10.40;;;5.40;;
70444;SDS011;57902;49.638;11.070;2023-06-22T02:34:52;9.25;;;5.22;;
70444;SDS011;57902;49.638;11.070;2023-06-22T02:37:19;10.32;;;5.47;;
70444;SDS011;57902;49.638;11.070;2023-06-22T02:39:45;9.45;;;6.15;;
70444;SDS011;57902;49.638;11.070;2023-06-22T02:42:12;10.70;;;6.60;;
70444;SDS011;57902;49.638;11.070;2023-06-22T02:44:38;14.38;;;5.50;;
70444;SDS011;57902;49.638;11.070;2023-06-22T02:47:05;8.30;;;4.55;;
70444;SDS011;57902;49.638;11.070;2023-06-22T02:49:32;11.60;;;4.72;;
70444;SDS011;57902;49.638;11.070;2023-06-22T02:51:58;14.38;;;5.78;;
70444;SDS011;57902;49.638;11.070;2023-06-22T02:54:25;10.27;;;6.05;;
70444;SDS011;57902;49.638;11.070;2023-06-22T02:56:51;12.25;;;5.50;;
70444;SDS011;57902;49.638;11.070;2023-06-22T02:59:18;11.00;;;5.70;;
70444;SDS011;57902;49.638;11.070;2023-06-22T03:01:50;11.18;;;5.80;;
70444;SDS011;57902;49.638;11.070;2023-06-22T03:04:17;9.90;;;5.90;;
70444;SDS011;57902;49.638;11.070;2023-06-22T03:06:44;10.13;;;6.20;;
70444;SDS011;57902;49.638;11.070;2023-06-22T03:09:17;11.88;;;6.00;;
70444;SDS011;57902;49.638;11.070;2023-06-22T03:11:43;10.63;;;6.35;;
70444;SDS011;57902;49.638;11.070;2023-06-22T03:14:10;10.70;;;5.90;;
70444;SDS011;57902;49.638;11.070;2023-06-22T03:16:36;14.93;;;6.07;;
70444;SDS011;57902;49.638;11.070;2023-06-22T03:19:03;10.80;;;6.53;;
70444;SDS011;57902;49.638;11.070;2023-06-22T03:21:29;11.60;;;6.50;;
70444;SDS011;57902;49.638;11.070;2023-06-22T03:23:56;11.55;;;6.60;;
70444;SDS011;57902;49.638;11.070;2023-06-22T03:26:22;10.63;;;6.15;;
70444;SDS011;57902;49.638;11.070;2023-06-22T03:28:53;12.75;;;6.65;;
70444;SDS011;57902;49.638;11.070;2023-06-22T03:31:19;11.18;;;7.07;;
70444;SDS011;57902;49.638;11.070;2023-06-22T03:33:48;12.13;;;7.55;;
70444;SDS011;57902;49.638;11.070;2023-06-22T03:36:16;12.20;;;6.57;;
70444;SDS011;57902;49.638;11.070;2023-06-22T03:38:46;11.82;;;6.32;;
70444;SDS011;57902;49.638;11.070;2023-06-22T03:41:13;10.20;;;6.15;;
70444;SDS011;57902;49.638;11.070;2023-06-22T03:43:40;10.57;;;6.85;;
70444;SDS011;57902;49.638;11.070;2023-06-22T03:46:07;10.85;;;6.30;;
70444;SDS011;57902;49.638;11.070;2023-06-22T03:48:34;11.15;;;6.15;;
70444;SDS011;57902;49.638;11.070;2023-06-22T03:51:00;11.50;;;6.35;;
70444;SDS011;57902;49.638;11.070;2023-06-22T03:53:28;11.77;;;6.40;;
70444;SDS011;57902;49.638;11.070;2023-06-22T03:55:55;12.63;;;6.97;;
70444;SDS011;57902;49.638;11.070;2023-06-22T03:58:21;11.55;;;6.82;;
70444;SDS011;57902;49.638;11.070;2023-06-22T04:00:49;11.32;;;6.47;;
70444;SDS011;57902;49.638;11.070;2023-06-22T04:03:17;12.20;;;7.38;;
70444;SDS011;57902;49.638;11.070;2023-06-22T04:05:47;12.93;;;7.50;;
70444;SDS011;57902;49.638;11.070;2023-06-22T04:08:15;15.38;;;7.05;;
70444;SDS011;57902;49.638;11.070;2023-06-22T04:10:42;11.98;;;6.88;;
70444;SDS011;57902;49.638;11.070;2023-06-22T04:13:09;16.25;;;7.53;;
70444;SDS011;57902;49.638;11.070;2023-06-22T04:15:36;12.57;;;7.28;;
70444;SDS011;57902;49.638;11.070;2023-06-22T04:18:02;11.27;;;6.82;;
70444;SDS011;57902;49.638;11.070;2023-06-22T04:20:30;14.20;;;7.30;;
70444;SDS011;57902;49.638;11.070;2023-06-22T04:22:58;11.85;;;6.60;;
70444;SDS011;57902;49.638;11.070;2023-06-22T04:25:25;12.07;;;7.18;;
70444;SDS011;57902;49.638;11.070;2023-06-22T04:27:51;13.10;;;7.38;;
70444;SDS011;57902;49.638;11.070;2023-06-22T04:30:18;12.20;;;7.22;;
70444;SDS011;57902;49.638;11.070;2023-06-22T04:32:45;13.70;;;7.93;;
70444;SDS011;57902;49.638;11.070;2023-06-22T04:35:11;12.52;;;6.50;;
70444;SDS011;57902;49.638;11.070;2023-06-22T04:37:38;17.15;;;9.18;;
70444;SDS011;57902;49.638;11.070;2023-06-22T04:40:05;13.07;;;7.97;;
70444;SDS011;57902;49.638;11.070;2023-06-22T04:45:32;11.23;;;7.22;;
70444;SDS011;57902;49.638;11.070;2023-06-22T04:47:59;11.70;;;6.75;;
70444;SDS011;57902;49.638;11.070;2023-06-22T04:50:26;10.73;;;6.18;;
70444;SDS011;57902;49.638;11.070;2023-06-22T04:52:53;11.40;;;6.80;;
70444;SDS011;57902;49.638;11.070;2023-06-22T04:55:19;11.25;;;6.78;;
70444;SDS011;57902;49.638;11.070;2023-06-22T04:57:47;10.68;;;7.10;;
70444;SDS011;57902;49.638;11.070;2023-06-22T05:00:15;10.07;;;5.88;;
70444;SDS011;57902;49.638;11.070;2023-06-22T05:02:44;11.57;;;7.18;;
70444;SDS011;57902;49.638;11.070;2023-06-22T05:05:13;14.15;;;7.28;;
70444;SDS011;57902;49.638;11.070;2023-06-22T05:10:10;10.48;;;5.90;;
70444;SDS011;57902;49.638;11.070;2023-06-22T05:12:38;11.43;;;6.65;;
70444;SDS011;57902;49.638;11.070;2023-06-22T05:15:06;10.25;;;6.00;;
70444;SDS011;57902;49.638;11.070;2023-06-22T05:17:34;12.15;;;6.32;;
70444;SDS011;57902;49.638;11.070;2023-06-22T05:20:02;10.75;;;6.22;;
70444;SDS011;57902;49.638;11.070;2023-06-22T05:22:32;19.73;;;6.82;;
70444;SDS011;57902;49.638;11.070;2023-06-22T05:24:58;11.48;;;6.15;;
70444;SDS011;57902;49.638;11.070;2023-06-22T05:27:25;10.38;;;5.90;;
70444;SDS011;57902;49.638;11.070;2023-06-22T05:29:51;9.18;;;5.25;;
70444;SDS011;57902;49.638;11.070;2023-06-22T05:32:18;8.50;;;5.68;;
70444;SDS011;57902;49.638;11.070;2023-06-22T05:34:45;9.45;;;5.32;;
70444;SDS011;57902;49.638;11.070;2023-06-22T05:37:11;9.38;;;5.93;;
70444;SDS011;57902;49.638;11.070;2023-06-22T05:39:39;9.38;;;5.60;;
70444;SDS011;57902;49.638;11.070;2023-06-22T05:42:05;10.80;;;5.95;;
70444;SDS011;57902;49.638;11.070;2023-06-22T05:44:36;8.85;;;5.57;;
70444;SDS011;57902;49.638;11.070;2023-06-22T05:47:03;7.80;;;5.40;;
70444;SDS011;57902;49.638;11.070;2023-06-22T05:49:30;10.85;;;5.18;;
70444;SDS011;57902;49.638;11.070;2023-06-22T05:51:59;8.32;;;5.22;;
70444;SDS011;57902;49.638;11.070;2023-06-22T05:56:56;10.52;;;5.03;;
70444;SDS011;57902;49.638;11.070;2023-06-22T05:59:23;8.57;;;5.13;;
70444;SDS011;57902;49.638;11.070;2023-06-22T06:01:49;10.57;;;5.10;;
70444;SDS011;57902;49.638;11.070;2023-06-22T06:06:44;9.45;;;5.10;;
70444;SDS011;57902;49.638;11.070;2023-06-22T06:09:13;8.45;;;5.20;;
70444;SDS011;57902;49.638;11.070;2023-06-22T06:11:40;9.98;;;4.90;;
70444;SDS011;57902;49.638;11.070;2023-06-22T06:14:07;9.88;;;5.10;;
70444;SDS011;57902;49.638;11.070;2023-06-22T06:16:33;7.35;;;5.05;;
70444;SDS011;57902;49.638;11.070;2023-06-22T06:19:00;10.40;;;5.35;;
70444;SDS011;57902;49.638;11.070;2023-06-22T06:21:26;8.77;;;4.70;;
70444;SDS011;57902;49.638;11.070;2023-06-22T06:23:56;8.70;;;4.85;;
70444;SDS011;57902;49.638;11.070;2023-06-22T06:26:22;9.10;;;4.75;;
70444;SDS011;57902;49.638;11.070;2023-06-22T06:28:54;8.98;;;5.05;;
70444;SDS011;57902;49.638;11.070;2023-06-22T06:31:21;7.82;;;4.97;;
70444;SDS011;57902;49.638;11.070;2023-06-22T06:33:49;9.25;;;5.00;;
70444;SDS011;57902;49.638;11.070;2023-06-22T06:36:16;10.85;;;5.15;;
70444;SDS011;57902;49.638;11.070;2023-06-22T06:41:16;9.23;;;5.10;;
70444;SDS011;57902;49.638;11.070;2023-06-22T06:43:42;11.00;;;5.03;;
70444;SDS011;57902;49.638;11.070;2023-06-22T06:46:09;7.43;;;4.97;;
70444;SDS011;57902;49.638;11.070;2023-06-22T06:48:36;7.32;;;5.03;;
70444;SDS011;57902;49.638;11.070;2023-06-22T06:51:03;11.45;;;5.40;;
70444;SDS011;57902;49.638;11.070;2023-06-22T06:53:29;8.68;;;5.38;;
70444;SDS011;57902;49.638;11.070;2023-06-22T06:55:56;15.63;;;5.97;;
70444;SDS011;57902;49.638;11.070;2023-06-22T06:58:23;10.98;;;5.03;;
70444;SDS011;57902;49.638;11.070;2023-06-22T07:00:49;7.82;;;4.85;;
70444;SDS011;57902;49.638;11.070;2023-06-22T07:03:16;9.75;;;4.47;;
70444;SDS011;57902;49.638;11.070;2023-06-22T07:05:42;8.18;;;4.82;;
70444;SDS011;57902;49.638;11.070;2023-06-22T07:08:09;7.97;;;5.05;;
70444;SDS011;57902;49.638;11.070;2023-06-22T07:10:36;11.15;;;5.45;;
70444;SDS011;57902;49.638;11.070;2023-06-22T07:13:03;8.70;;;5.15;;
70444;SDS011;57902;49.638;11.070;2023-06-22T07:15:29;10.93;;;5.45;;
70444;SDS011;57902;49.638;11.070;2023-06-22T07:17:56;7.35;;;5.10;;
70444;SDS011;57902;49.638;11.070;2023-06-22T07:20:25;8.73;;;4.95;;
70444;SDS011;57902;49.638;11.070;2023-06-22T07:22:51;9.63;;;4.93;;
70444;SDS011;57902;49.638;11.070;2023-06-22T07:30:22;9.38;;;4.82;;
70444;SDS011;57902;49.638;11.070;2023-06-22T07:32:49;9.23;;;4.38;;
70444;SDS011;57902;49.638;11.070;2023-06-22T07:35:21;8.23;;;4.90;;
70444;SDS011;57902;49.638;11.070;2023-06-22T07:37:47;8.00;;;4.70;;
70444;SDS011;57902;49.638;11.070;2023-06-22T07:40:14;7.78;;;4.80;;
70444;SDS011;57902;49.638;11.070;2023-06-22T07:42:49;11.68;;;4.93;;
70444;SDS011;57902;49.638;11.070;2023-06-22T07:45:23;8.98;;;5.25;;
70444;SDS011;57902;49.638;11.070;2023-06-22T07:47:49;9.02;;;5.25;;
70444;SDS011;57902;49.638;11.070;2023-06-22T07:50:16;8.52;;;4.32;;
70444;SDS011;57902;49.638;11.070;2023-06-22T07:52:43;8.02;;;4.32;;
70444;SDS011;57902;49.638;11.070;2023-06-22T07:55:09;7.32;;;4.20;;
70444;SDS011;57902;49.638;11.070;2023-06-22T07:57:36;6.60;;;4.20;;
70444;SDS011;57902;49.638;11.070;2023-06-22T08:00:04;9.25;;;4.45;;
70444;SDS011;57902;49.638;11.070;2023-06-22T08:02:41;11.23;;;4.50;;
70444;SDS011;57902;49.638;11.070;2023-06-22T08:05:09;8.57;;;4.30;;
70444;SDS011;57902;49.638;11.070;2023-06-22T08:07:59;10.45;;;4.70;;
70444;SDS011;57902;49.638;11.070;2023-06-22T08:10:45;8.35;;;4.45;;
70444;SDS011;57902;49.638;11.070;2023-06-22T08:17:25;7.43;;;4.38;;
70444;SDS011;57902;49.638;11.070;2023-06-22T08:20:03;9.88;;;4.60;;
70444;SDS011;57902;49.638;11.070;2023-06-22T08:22:59;10.40;;;4.10;;
70444;SDS011;57902;49.638;11.070;2023-06-22T08:25:50;7.93;;;4.55;;
70444;SDS011;57902;49.638;11.070;2023-06-22T08:28:20;8.15;;;4.60;;
70444;SDS011;57902;49.638;11.070;2023-06-22T08:31:11;7.50;;;4.30;;
70444;SDS011;57902;49.638;11.070;2023-06-22T08:33:40;8.00;;;4.43;;
70444;SDS011;57902;49.638;11.070;2023-06-22T08:36:20;11.30;;;4.30;;
70444;SDS011;57902;49.638;11.070;2023-06-22T08:39:35;9.63;;;4.60;;
70444;SDS011;57902;49.638;11.070;2023-06-22T08:42:54;8.02;;;3.85;;
70444;SDS011;57902;49.638;11.070;2023-06-22T08:45:31;10.10;;;4.20;;
70444;SDS011;57902;49.638;11.070;2023-06-22T08:48:08;8.93;;;4.07;;
70444;SDS011;57902;49.638;11.070;2023-06-22T08:50:40;9.05;;;3.97;;
70444;SDS011;57902;49.638;11.070;2023-06-22T08:53:27;12.07;;;4.43;;
70444;SDS011;57902;49.638;11.070;2023-06-22T08:55:54;8.95;;;4.50;;
70444;SDS011;57902;49.638;11.070;2023-06-22T08:58:21;11.02;;;4.30;;
70444;SDS011;57902;49.638;11.070;2023-06-22T09:00:50;12.02;;;4.10;;
70444;SDS011;57902;49.638;11.070;2023-06-22T09:03:23;12.70;;;4.47;;
70444;SDS011;57902;49.638;11.070;2023-06-22T09:05:53;9.35;;;4.57;;
70444;SDS011;57902;49.638;11.070;2023-06-22T09:08:20;9.82;;;4.22;;
70444;SDS011;57902;49.638;11.070;2023-06-22T09:10:49;7.60;;;4.10;;
70444;SDS011;57902;49.638;11.070;2023-06-22T09:13:15;8.95;;;4.05;;
70444;SDS011;57902;49.638;11.070;2023-06-22T09:15:45;9.20;;;4.00;;
70444;SDS011;57902;49.638;11.070;2023-06-22T09:18:14;8.75;;;4.07;;
70444;SDS011;57902;49.638;11.070;2023-06-22T09:20:48;14.80;;;4.10;;
70444;SDS011;57902;49.638;11.070;2023-06-22T09:23:25;9.13;;;4.53;;
70444;SDS011;57902;49.638;11.070;2023-06-22T09:25:54;10.10;;;4.32;;
70444;SDS011;57902;49.638;11.070;2023-06-22T09:28:22;10.68;;;4.40;;
70444;SDS011;57902;49.638;11.070;2023-06-22T09:30:50;10.43;;;4.13;;
70444;SDS011;57902;49.638;11.070;2023-06-22T09:33:17;8.88;;;4.00;;
70444;SDS011;57902;49.638;11.070;2023-06-22T09:35:46;10.60;;;4.40;;
70444;SDS011;57902;49.638;11.070;2023-06-22T09:38:17;13.45;;;4.40;;
70444;SDS011;57902;49.638;11.070;2023-06-22T09:40:44;9.23;;;3.75;;
70444;SDS011;57902;49.638;11.070;2023-06-22T09:43:14;10.35;;;4.47;;
70444;SDS011;57902;49.638;11.070;2023-06-22T09:45:41;8.88;;;4.30;;
70444;SDS011;57902;49.638;11.070;2023-06-22T09:48:10;9.88;;;4.07;;
70444;SDS011;57902;49.638;11.070;2023-06-22T09:50:37;8.98;;;4.28;;
70444;SDS011;57902;49.638;11.070;2023-06-22T09:53:04;14.07;;;4.25;;
70444;SDS011;57902;49.638;11.070;2023-06-22T09:55:31;12.82;;;4.35;;
70444;SDS011;57902;49.638;11.070;2023-06-22T09:57:57;10.70;;;4.88;;
70444;SDS011;57902;49.638;11.070;2023-06-22T10:00:30;9.00;;;4.13;;
70444;SDS011;57902;49.638;11.070;2023-06-22T10:02:58;8.85;;;4.07;;
70444;SDS011;57902;49.638;11.070;2023-06-22T10:05:29;14.88;;;4.47;;
70444;SDS011;57902;49.638;11.070;2023-06-22T10:08:05;12.48;;;4.50;;
70444;SDS011;57902;49.638;11.070;2023-06-22T10:10:42;9.77;;;4.03;;
70444;SDS011;57902;49.638;11.070;2023-06-22T10:13:19;9.93;;;4.95;;
70444;SDS011;57902;49.638;11.070;2023-06-22T10:15:46;12.65;;;4.90;;
70444;SDS011;57902;49.638;11.070;2023-06-22T10:18:18;10.05;;;4.53;;
70444;SDS011;57902;49.638;11.070;2023-06-22T10:20:51;9.45;;;4.40;;
70444;SDS011;57902;49.638;11.070;2023-06-22T10:23:28;9.75;;;4.25;;
70444;SDS011;57902;49.638;11.070;2023-06-22T10:26:04;11.48;;;4.57;;
70444;SDS011;57902;49.638;11.070;2023-06-22T10:28:31;9.20;;;4.40;;
70444;SDS011;57902;49.638;11.070;2023-06-22T10:31:11;12.10;;;4.35;;
70444;SDS011;57902;49.638;11.070;2023-06-22T10:33:41;11.80;;;4.78;;
70444;SDS011;57902;49.638;11.070;2023-06-22T10:36:17;9.77;;;4.68;;
70444;SDS011;57902;49.638;11.070;2023-06-22T10:38:46;12.93;;;4.28;;
70444;SDS011;57902;49.638;11.070;2023-06-22T10:41:14;13.55;;;4.57;;
70444;SDS011;57902;49.638;11.070;2023-06-22T10:43:59;11.00;;;4.40;;
70444;SDS011;57902;49.638;11.070;2023-06-22T10:46:27;11.40;;;4.50;;
70444;SDS011;57902;49.638;11.070;2023-06-22T10:48:54;11.93;;;4.50;;
70444;SDS011;57902;49.638;11.070;2023-06-22T10:51:25;10.30;;;4.20;;
70444;SDS011;57902;49.638;11.070;2023-06-22T10:54:03;11.00;;;4.85;;
70444;SDS011;57902;49.638;11.070;2023-06-22T10:56:50;9.80;;;4.63;;
70444;SDS011;57902;49.638;11.070;2023-06-22T10:59:19;9.30;;;4.75;;
70444;SDS011;57902;49.638;11.070;2023-06-22T11:01:57;13.30;;;4.80;;
70444;SDS011;57902;49.638;11.070;2023-06-22T11:04:45;10.77;;;4.32;;
70444;SDS011;57902;49.638;11.070;2023-06-22T11:07:25;8.45;;;3.80;;
70444;SDS011;57902;49.638;11.070;2023-06-22T11:10:01;11.82;;;4.45;;
70444;SDS011;57902;49.638;11.070;2023-06-22T11:12:45;10.68;;;4.43;;
70444;SDS011;57902;49.638;11.070;2023-06-22T11:15:15;12.70;;;4.45;;
70444;SDS011;57902;49.638;11.070;2023-06-22T11:17:45;12.43;;;4.90;;
70444;SDS011;57902;49.638;11.070;2023-06-22T11:20:19;10.57;;;4.47;;
70444;SDS011;57902;49.638;11.070;2023-06-22T11:23:10;14.18;;;5.03;;
70444;SDS011;57902;49.638;11.070;2023-06-22T11:25:56;10.07;;;4.28;;
70444;SDS011;57902;49.638;11.070;2023-06-22T11:28:25;11.57;;;4.82;;
70444;SDS011;57902;49.638;11.070;2023-06-22T11:31:03;10.23;;;3.78;;
70444;SDS011;57902;49.638;11.070;2023-06-22T11:33:55;14.20;;;4.30;;
70444;SDS011;57902;49.638;11.070;2023-06-22T11:36:25;10.77;;;4.28;;
70444;SDS011;57902;49.638;11.070;2023-06-22T11:39:07;9.85;;;4.72;;
70444;SDS011;57902;49.638;11.070;2023-06-22T11:44:12;14.77;;;4.50;;
70444;SDS011;57902;49.638;11.070;2023-06-22T11:46:39;13.38;;;4.30;;
70444;SDS011;57902;49.638;11.070;2023-06-22T11:49:28;11.18;;;4.20;;
70444;SDS011;57902;49.638;11.070;2023-06-22T11:52:09;11.20;;;3.90;;
70444;SDS011;57902;49.638;11.070;2023-06-22T11:54:40;10.48;;;4.05;;
70444;SDS011;57902;49.638;11.070;2023-06-22T11:57:10;11.95;;;4.60;;
70444;SDS011;57902;49.638;11.070;2023-06-22T11:59:49;10.48;;;4.20;;
70444;SDS011;57902;49.638;11.070;2023-06-22T12:02:35;8.88;;;4.38;;
70444;SDS011;57902;49.638;11.070;2023-06-22T12:05:05;13.55;;;4.40;;
70444;SDS011;57902;49.638;11.070;2023-06-22T12:07:38;9.25;;;4.15;;
70444;SDS011;57902;49.638;11.070;2023-06-22T12:10:21;9.85;;;4.00;;
70444;SDS011;57902;49.638;11.070;2023-06-22T12:12:58;13.05;;;4.50;;
70444;SDS011;57902;49.638;11.070;2023-06-22T12:15:30;10.88;;;4.38;;
70444;SDS011;57902;49.638;11.070;2023-06-22T12:17:57;11.38;;;4.43;;
70444;SDS011;57902;49.638;11.070;2023-06-22T12:20:35;10.63;;;4.30;;
70444;SDS011;57902;49.638;11.070;2023-06-22T12:23:02;12.52;;;4.68;;
70444;SDS011;57902;49.638;11.070;2023-06-22T12:25:36;11.32;;;4.40;;
70444;SDS011;57902;49.638;11.070;2023-06-22T12:28:03;12.35;;;4.65;;
70444;SDS011;57902;49.638;11.070;2023-06-22T12:30:43;9.60;;;4.10;;
70444;SDS011;57902;49.638;11.070;2023-06-22T12:33:16;9.68;;;4.45;;
70444;SDS011;57902;49.638;11.070;2023-06-22T12:35:46;11.45;;;4.40;;
70444;SDS011;57902;49.638;11.070;2023-06-22T12:38:15;12.10;;;4.40;;
70444;SDS011;57902;49.638;11.070;2023-06-22T12:40:43;12.55;;;4.15;;
70444;SDS011;57902;49.638;11.070;2023-06-22T12:43:10;12.38;;;4.50;;
70444;SDS011;57902;49.638;11.070;2023-06-22T12:45:45;12.13;;;4.10;;
70444;SDS011;57902;49.638;11.070;2023-06-22T12:51:20;14.95;;;4.47;;
70444;SDS011;57902;49.638;11.070;2023-06-22T12:54:02;11.10;;;4.20;;
70444;SDS011;57902;49.638;11.070;2023-06-22T13:02:31;12.43;;;4.43;;
70444;SDS011;57902;49.638;11.070;2023-06-22T13:05:16;8.93;;;4.50;;
70444;SDS011;57902;49.638;11.070;2023-06-22T13:07:49;14.68;;;4.88;;
70444;SDS011;57902;49.638;11.070;2023-06-22T13:10:21;11.02;;;4.57;;
70444;SDS011;57902;49.638;11.070;2023-06-22T13:12:58;9.75;;;4.32;;
70444;SDS011;57902;49.638;11.070;2023-06-22T13:15:29;14.00;;;4.07;;
70444;SDS011;57902;49.638;11.070;2023-06-22T13:17:56;13.20;;;4.43;;
70444;SDS011;57902;49.638;11.070;2023-06-22T13:20:22;11.77;;;4.50;;
70444;SDS011;57902;49.638;11.070;2023-06-22T13:22:49;11.60;;;4.38;;
70444;SDS011;57902;49.638;11.070;2023-06-22T13:25:15;13.07;;;4.85;;
70444;SDS011;57902;49.638;11.070;2023-06-22T13:27:45;12.32;;;4.63;;
70444;SDS011;57902;49.638;11.070;2023-06-22T13:30:12;11.82;;;4.97;;
70444;SDS011;57902;49.638;11.070;2023-06-22T13:32:40;11.48;;;4.68;;
70444;SDS011;57902;49.638;11.070;2023-06-22T13:35:10;11.95;;;4.60;;
70444;SDS011;57902;49.638;11.070;2023-06-22T13:37:37;8.75;;;4.43;;
70444;SDS011;57902;49.638;11.070;2023-06-22T13:40:07;11.48;;;4.63;;
70444;SDS011;57902;49.638;11.070;2023-06-22T13:42:37;11.48;;;4.47;;
70444;SDS011;57902;49.638;11.070;2023-06-22T13:45:04;11.82;;;4.40;;
70444;SDS011;57902;49.638;11.070;2023-06-22T13:47:32;9.43;;;4.68;;
70444;SDS011;57902;49.638;11.070;2023-06-22T13:49:59;13.00;;;4.90;;
70444;SDS011;57902;49.638;11.070;2023-06-22T13:52:26;12.75;;;4.90;;
70444;SDS011;57902;49.638;11.070;2023-06-22T13:54:52;11.55;;;4.43;;
70444;SDS011;57902;49.638;11.070;2023-06-22T13:57:22;13.80;;;4.53;;
70444;SDS011;57902;49.638;11.070;2023-06-22T13:59:48;11.35;;;4.63;;
70444;SDS011;57902;49.638;11.070;2023-06-22T14:02:15;13.77;;;4.57;;
70444;SDS011;57902;49.638;11.070;2023-06-22T14:04:41;11.02;;;4.55;;
70444;SDS011;57902;49.638;11.070;2023-06-22T14:07:08;16.27;;;4.80;;
70444;SDS011;57902;49.638;11.070;2023-06-22T14:09:35;13.85;;;5.03;;
70444;SDS011;57902;49.638;11.070;2023-06-22T14:15:22;12.82;;;4.35;;
70444;SDS011;57902;49.638;11.070;2023-06-22T14:17:48;10.95;;;4.65;;
70444;SDS011;57902;49.638;11.070;2023-06-22T14:20:18;9.55;;;4.20;;
70444;SDS011;57902;49.638;11.070;2023-06-22T14:22:45;12.65;;;5.18;;
70444;SDS011;57902;49.638;11.070;2023-06-22T14:25:13;15.32;;;4.85;;
70444;SDS011;57902;49.638;11.070;2023-06-22T14:27:40;16.10;;;4.53;;
70444;SDS011;57902;49.638;11.070;2023-06-22T14:30:06;12.90;;;4.40;;
70444;SDS011;57902;49.638;11.070;2023-06-22T14:32:33;13.18;;;4.70;;
70444;SDS011;57902;49.638;11.070;2023-06-22T14:35:00;14.68;;;4.97;;
70444;SDS011;57902;49.638;11.070;2023-06-22T14:37:26;10.55;;;4.53;;
70444;SDS011;57902;49.638;11.070;2023-06-22T14:39:54;17.08;;;4.65;;
70444;SDS011;57902;49.638;11.070;2023-06-22T14:42:24;12.77;;;5.15;;
70444;SDS011;57902;49.638;11.070;2023-06-22T14:44:53;16.17;;;4.70;;
70444;SDS011;57902;49.638;11.070;2023-06-22T14:47:19;12.43;;;4.75;;
70444;SDS011;57902;49.638;11.070;2023-06-22T14:49:49;11.45;;;4.63;;
70444;SDS011;57902;49.638;11.070;2023-06-22T14:52:16;11.02;;;4.50;;
70444;SDS011;57902;49.638;11.070;2023-06-22T14:54:43;13.32;;;4.70;;
70444;SDS011;57902;49.638;11.070;2023-06-22T14:57:10;11.43;;;4.90;;
70444;SDS011;57902;49.638;11.070;2023-06-22T14:59:38;14.85;;;4.65;;
70444;SDS011;57902;49.638;11.070;2023-06-22T15:04:32;11.02;;;4.78;;
70444;SDS011;57902;49.638;11.070;2023-06-22T15:07:01;16.10;;;4.88;;
70444;SDS011;57902;49.638;11.070;2023-06-22T15:09:27;15.15;;;4.80;;
70444;SDS011;57902;49.638;11.070;2023-06-22T15:11:57;15.32;;;4.88;;
70444;SDS011;57902;49.638;11.070;2023-06-22T15:14:24;11.45;;;4.57;;
70444;SDS011;57902;49.638;11.070;2023-06-22T15:16:51;15.02;;;4.75;;
70444;SDS011;57902;49.638;11.070;2023-06-22T15:19:17;12.63;;;4.95;;
70444;SDS011;57902;49.638;11.070;2023-06-22T15:21:44;12.75;;;4.97;;
70444;SDS011;57902;49.638;11.070;2023-06-22T15:24:11;13.88;;;4.65;;
70444;SDS011;57902;49.638;11.070;2023-06-22T15:26:41;14.02;;;4.82;;
70444;SDS011;57902;49.638;11.070;2023-06-22T15:29:10;18.00;;;5.13;;
70444;SDS011;57902;49.638;11.070;2023-06-22T15:31:37;16.15;;;4.90;;
70444;SDS011;57902;49.638;11.070;2023-06-22T15:34:05;13.15;;;4.78;;
70444;SDS011;57902;49.638;11.070;2023-06-22T15:36:32;17.77;;;4.75;;
70444;SDS011;57902;49.638;11.070;2023-06-22T15:39:00;13.52;;;4.65;;